sensor_id;sensor_type;location;lat;lon;timestamp;P1;durP1;ratioP1;P2;durP2;ratioP2
80539;SDS011;69869;48.036;15.780;2023-05-23T00:01:02;15.70;;;3.38;;
80539;SDS011;69869;48.036;15.780;2023-05-23T00:03:31;11.13;;;3.58;;
80539;SDS011;69869;48.036;15.780;2023-05-23T00:05:57;15.13;;;3.35;;
80539;SDS011;69869;48.036;15.780;2023-05-23T00:08:23;9.25;;;2.95;;
80539;SDS011;69869;48.036;15.780;2023-05-23T00:10:49;9.57;;;3.00;;
80539;SDS011;69869;48.036;15.780;2023-05-23T00:13:15;9.18;;;3.00;;
80539;SDS011;69869;48.036;15.780;2023-05-23T00:15:41;9.90;;;3.25;;
80539;SDS011;69869;48.036;15.780;2023-05-23T00:18:08;9.52;;;3.00;;
80539;SDS011;69869;48.036;15.780;2023-05-23T00:20:39;12.18;;;3.40;;
80539;SDS011;69869;48.036;15.780;2023-05-23T00:23:07;13.93;;;3.20;;
80539;SDS011;69869;48.036;15.780;2023-05-23T00:25:34;9.50;;;3.05;;
80539;SDS011;69869;48.036;15.780;2023-05-23T00:28:01;9.68;;;2.90;;
80539;SDS011;69869;48.036;15.780;2023-05-23T00:30:29;7.78;;;2.90;;
80539;SDS011;69869;48.036;15.780;2023-05-23T00:32:56;8.43;;;3.03;;
80539;SDS011;69869;48.036;15.780;2023-05-23T00:35:23;7.68;;;3.08;;
80539;SDS011;69869;48.036;15.780;2023-05-23T00:37:49;8.75;;;3.03;;
80539;SDS011;69869;48.036;15.780;2023-05-23T00:40:16;5.88;;;2.80;;
80539;SDS011;69869;48.036;15.780;2023-05-23T00:42:42;7.55;;;2.63;;
80539;SDS011;69869;48.036;15.780;2023-05-23T00:45:08;9.15;;;2.88;;
80539;SDS011;69869;48.036;15.780;2023-05-23T00:47:36;7.20;;;2.78;;
80539;SDS011;69869;48.036;15.780;2023-05-23T00:50:08;6.15;;;3.00;;
80539;SDS011;69869;48.036;15.780;2023-05-23T00:52:36;5.40;;;3.08;;
80539;SDS011;69869;48.036;15.780;2023-05-23T00:55:03;6.75;;;2.80;;
80539;SDS011;69869;48.036;15.780;2023-05-23T00:57:29;5.82;;;2.80;;
80539;SDS011;69869;48.036;15.780;2023-05-23T00:59:55;6.07;;;3.00;;
80539;SDS011;69869;48.036;15.780;2023-05-23T01:02:21;5.78;;;2.80;;
80539;SDS011;69869;48.036;15.780;2023-05-23T01:04:48;5.72;;;2.95;;
80539;SDS011;69869;48.036;15.780;2023-05-23T01:07:20;6.78;;;3.42;;
80539;SDS011;69869;48.036;15.780;2023-05-23T01:09:46;5.50;;;2.92;;
80539;SDS011;69869;48.036;15.780;2023-05-23T01:12:18;5.10;;;2.72;;
80539;SDS011;69869;48.036;15.780;2023-05-23T01:17:37;7.18;;;2.60;;
80539;SDS011;69869;48.036;15.780;2023-05-23T01:20:10;6.65;;;2.80;;
80539;SDS011;69869;48.036;15.780;2023-05-23T01:25:23;5.10;;;2.60;;
80539;SDS011;69869;48.036;15.780;2023-05-23T01:28:11;4.63;;;2.30;;
80539;SDS011;69869;48.036;15.780;2023-05-23T01:30:44;4.28;;;2.60;;
80539;SDS011;69869;48.036;15.780;2023-05-23T01:33:12;5.57;;;2.50;;
80539;SDS011;69869;48.036;15.780;2023-05-23T01:35:40;7.53;;;2.60;;
80539;SDS011;69869;48.036;15.780;2023-05-23T01:38:07;2.47;;;2.28;;
80539;SDS011;69869;48.036;15.780;2023-05-23T01:40:33;5.78;;;2.60;;
80539;SDS011;69869;48.036;15.780;2023-05-23T01:43:00;5.20;;;2.65;;
80539;SDS011;69869;48.036;15.780;2023-05-23T01:45:26;3.63;;;2.33;;
80539;SDS011;69869;48.036;15.780;2023-05-23T01:47:54;3.58;;;2.28;;
80539;SDS011;69869;48.036;15.780;2023-05-23T01:50:21;4.28;;;2.50;;
80539;SDS011;69869;48.036;15.780;2023-05-23T01:52:47;2.65;;;2.45;;
80539;SDS011;69869;48.036;15.780;2023-05-23T01:55:15;4.38;;;2.30;;
80539;SDS011;69869;48.036;15.780;2023-05-23T01:57:46;3.95;;;2.30;;
80539;SDS011;69869;48.036;15.780;2023-05-23T02:00:19;9.82;;;2.40;;
80539;SDS011;69869;48.036;15.780;2023-05-23T02:02:45;4.20;;;2.10;;
80539;SDS011;69869;48.036;15.780;2023-05-23T02:05:11;4.53;;;2.33;;
80539;SDS011;69869;48.036;15.780;2023-05-23T02:07:36;5.40;;;2.42;;
80539;SDS011;69869;48.036;15.780;2023-05-23T02:10:02;5.45;;;2.40;;
80539;SDS011;69869;48.036;15.780;2023-05-23T02:12:29;6.90;;;2.28;;
80539;SDS011;69869;48.036;15.780;2023-05-23T02:14:54;6.22;;;2.60;;
80539;SDS011;69869;48.036;15.780;2023-05-23T02:17:20;8.80;;;2.28;;
80539;SDS011;69869;48.036;15.780;2023-05-23T02:19:46;9.82;;;2.40;;
80539;SDS011;69869;48.036;15.780;2023-05-23T02:22:12;13.02;;;2.70;;
80539;SDS011;69869;48.036;15.780;2023-05-23T02:24:38;15.32;;;2.60;;
80539;SDS011;69869;48.036;15.780;2023-05-23T02:27:04;6.72;;;2.42;;
80539;SDS011;69869;48.036;15.780;2023-05-23T02:29:30;7.95;;;2.40;;
80539;SDS011;69869;48.036;15.780;2023-05-23T02:31:56;10.77;;;2.67;;
80539;SDS011;69869;48.036;15.780;2023-05-23T02:34:22;8.00;;;2.53;;
80539;SDS011;69869;48.036;15.780;2023-05-23T02:36:47;9.63;;;2.30;;
80539;SDS011;69869;48.036;15.780;2023-05-23T02:39:13;7.55;;;2.40;;
80539;SDS011;69869;48.036;15.780;2023-05-23T02:41:39;12.00;;;2.47;;
80539;SDS011;69869;48.036;15.780;2023-05-23T02:44:05;8.48;;;2.40;;
80539;SDS011;69869;48.036;15.780;2023-05-23T02:46:30;8.32;;;2.53;;
80539;SDS011;69869;48.036;15.780;2023-05-23T02:48:56;7.95;;;2.47;;
80539;SDS011;69869;48.036;15.780;2023-05-23T02:51:22;6.25;;;2.60;;
80539;SDS011;69869;48.036;15.780;2023-05-23T02:53:47;8.02;;;2.42;;
80539;SDS011;69869;48.036;15.780;2023-05-23T02:56:13;3.78;;;2.17;;
80539;SDS011;69869;48.036;15.780;2023-05-23T02:58:40;4.93;;;2.30;;
80539;SDS011;69869;48.036;15.780;2023-05-23T03:01:05;3.42;;;2.33;;
80539;SDS011;69869;48.036;15.780;2023-05-23T03:03:32;4.10;;;2.28;;
80539;SDS011;69869;48.036;15.780;2023-05-23T03:05:58;3.88;;;2.30;;
80539;SDS011;69869;48.036;15.780;2023-05-23T03:08:24;4.13;;;2.35;;
80539;SDS011;69869;48.036;15.780;2023-05-23T03:10:50;4.63;;;2.30;;
80539;SDS011;69869;48.036;15.780;2023-05-23T03:13:16;4.93;;;2.33;;
80539;SDS011;69869;48.036;15.780;2023-05-23T03:15:42;19.17;;;2.60;;
80539;SDS011;69869;48.036;15.780;2023-05-23T03:18:08;6.55;;;2.20;;
80539;SDS011;69869;48.036;15.780;2023-05-23T03:20:35;14.68;;;2.70;;
80539;SDS011;69869;48.036;15.780;2023-05-23T03:23:00;9.45;;;2.53;;
80539;SDS011;69869;48.036;15.780;2023-05-23T03:25:26;10.07;;;2.30;;
80539;SDS011;69869;48.036;15.780;2023-05-23T03:27:52;6.38;;;2.22;;
80539;SDS011;69869;48.036;15.780;2023-05-23T03:30:17;7.78;;;2.33;;
80539;SDS011;69869;48.036;15.780;2023-05-23T03:32:43;9.80;;;2.47;;
80539;SDS011;69869;48.036;15.780;2023-05-23T03:35:08;10.15;;;2.55;;
80539;SDS011;69869;48.036;15.780;2023-05-23T03:37:35;7.95;;;2.35;;
80539;SDS011;69869;48.036;15.780;2023-05-23T03:40:01;9.73;;;2.50;;
80539;SDS011;69869;48.036;15.780;2023-05-23T03:42:27;11.05;;;2.45;;
80539;SDS011;69869;48.036;15.780;2023-05-23T03:44:54;8.75;;;2.28;;
80539;SDS011;69869;48.036;15.780;2023-05-23T03:47:19;10.20;;;2.30;;
80539;SDS011;69869;48.036;15.780;2023-05-23T03:49:45;9.38;;;2.35;;
80539;SDS011;69869;48.036;15.780;2023-05-23T03:52:11;11.93;;;2.50;;
80539;SDS011;69869;48.036;15.780;2023-05-23T03:54:37;12.48;;;2.65;;
80539;SDS011;69869;48.036;15.780;2023-05-23T03:57:02;11.60;;;2.38;;
80539;SDS011;69869;48.036;15.780;2023-05-23T03:59:28;16.88;;;2.50;;
80539;SDS011;69869;48.036;15.780;2023-05-23T04:01:54;18.98;;;2.70;;
80539;SDS011;69869;48.036;15.780;2023-05-23T04:04:22;12.07;;;2.75;;
80539;SDS011;69869;48.036;15.780;2023-05-23T04:06:49;12.57;;;2.42;;
80539;SDS011;69869;48.036;15.780;2023-05-23T04:09:15;12.15;;;2.35;;
80539;SDS011;69869;48.036;15.780;2023-05-23T04:11:42;11.27;;;2.55;;
80539;SDS011;69869;48.036;15.780;2023-05-23T04:14:08;11.43;;;2.20;;
80539;SDS011;69869;48.036;15.780;2023-05-23T04:16:34;19.75;;;2.90;;
80539;SDS011;69869;48.036;15.780;2023-05-23T04:19:01;12.98;;;3.83;;
80539;SDS011;69869;48.036;15.780;2023-05-23T04:21:28;14.93;;;3.50;;
80539;SDS011;69869;48.036;15.780;2023-05-23T04:23:54;9.32;;;3.65;;
80539;SDS011;69869;48.036;15.780;2023-05-23T04:26:20;6.63;;;3.83;;
80539;SDS011;69869;48.036;15.780;2023-05-23T04:28:46;8.80;;;4.15;;
80539;SDS011;69869;48.036;15.780;2023-05-23T04:31:12;7.25;;;3.65;;
80539;SDS011;69869;48.036;15.780;2023-05-23T04:33:38;43.80;;;4.95;;
80539;SDS011;69869;48.036;15.780;2023-05-23T04:36:04;20.50;;;4.53;;
80539;SDS011;69869;48.036;15.780;2023-05-23T04:38:33;21.67;;;4.50;;
80539;SDS011;69869;48.036;15.780;2023-05-23T04:40:59;22.83;;;4.43;;
80539;SDS011;69869;48.036;15.780;2023-05-23T04:43:24;13.30;;;4.93;;
80539;SDS011;69869;48.036;15.780;2023-05-23T04:45:51;10.63;;;4.43;;
80539;SDS011;69869;48.036;15.780;2023-05-23T04:48:19;17.05;;;4.43;;
80539;SDS011;69869;48.036;15.780;2023-05-23T04:50:46;11.18;;;4.68;;
80539;SDS011;69869;48.036;15.780;2023-05-23T04:53:12;18.63;;;4.88;;
80539;SDS011;69869;48.036;15.780;2023-05-23T04:55:38;12.05;;;4.70;;
80539;SDS011;69869;48.036;15.780;2023-05-23T04:58:04;9.45;;;4.40;;
80539;SDS011;69869;48.036;15.780;2023-05-23T05:00:29;10.80;;;5.05;;
80539;SDS011;69869;48.036;15.780;2023-05-23T05:02:55;9.93;;;4.60;;
80539;SDS011;69869;48.036;15.780;2023-05-23T05:05:21;9.73;;;5.00;;
80539;SDS011;69869;48.036;15.780;2023-05-23T05:07:46;5.78;;;4.68;;
80539;SDS011;69869;48.036;15.780;2023-05-23T05:10:12;5.65;;;4.65;;
80539;SDS011;69869;48.036;15.780;2023-05-23T05:12:44;9.13;;;5.20;;
80539;SDS011;69869;48.036;15.780;2023-05-23T05:15:16;7.53;;;5.43;;
80539;SDS011;69869;48.036;15.780;2023-05-23T05:17:42;9.55;;;5.40;;
80539;SDS011;69869;48.036;15.780;2023-05-23T05:20:08;7.47;;;5.72;;
80539;SDS011;69869;48.036;15.780;2023-05-23T05:22:35;10.82;;;5.63;;
80539;SDS011;69869;48.036;15.780;2023-05-23T05:25:07;13.00;;;5.60;;
80539;SDS011;69869;48.036;15.780;2023-05-23T05:27:33;14.23;;;5.78;;
80539;SDS011;69869;48.036;15.780;2023-05-23T05:30:02;6.28;;;5.10;;
80539;SDS011;69869;48.036;15.780;2023-05-23T05:32:30;7.07;;;5.15;;
80539;SDS011;69869;48.036;15.780;2023-05-23T05:34:57;6.10;;;5.35;;
80539;SDS011;69869;48.036;15.780;2023-05-23T05:37:27;9.05;;;5.18;;
80539;SDS011;69869;48.036;15.780;2023-05-23T05:39:53;7.55;;;5.40;;
80539;SDS011;69869;48.036;15.780;2023-05-23T05:42:19;7.40;;;5.63;;
80539;SDS011;69869;48.036;15.780;2023-05-23T05:44:46;7.70;;;5.63;;
80539;SDS011;69869;48.036;15.780;2023-05-23T05:47:12;7.75;;;5.28;;
80539;SDS011;69869;48.036;15.780;2023-05-23T05:49:38;7.00;;;5.53;;
80539;SDS011;69869;48.036;15.780;2023-05-23T05:52:05;8.07;;;5.90;;
80539;SDS011;69869;48.036;15.780;2023-05-23T05:54:31;7.45;;;5.22;;
80539;SDS011;69869;48.036;15.780;2023-05-23T05:56:56;7.70;;;5.47;;
80539;SDS011;69869;48.036;15.780;2023-05-23T05:59:22;7.18;;;5.47;;
80539;SDS011;69869;48.036;15.780;2023-05-23T06:01:48;8.40;;;5.75;;
80539;SDS011;69869;48.036;15.780;2023-05-23T06:04:15;9.27;;;5.50;;
80539;SDS011;69869;48.036;15.780;2023-05-23T06:06:41;7.20;;;5.60;;
80539;SDS011;69869;48.036;15.780;2023-05-23T06:09:07;7.55;;;5.43;;
80539;SDS011;69869;48.036;15.780;2023-05-23T06:11:33;7.25;;;5.25;;
80539;SDS011;69869;48.036;15.780;2023-05-23T06:14:01;7.78;;;5.40;;
80539;SDS011;69869;48.036;15.780;2023-05-23T06:16:27;5.57;;;5.07;;
80539;SDS011;69869;48.036;15.780;2023-05-23T06:18:53;7.93;;;5.03;;
80539;SDS011;69869;48.036;15.780;2023-05-23T06:21:18;8.70;;;5.68;;
80539;SDS011;69869;48.036;15.780;2023-05-23T06:23:44;7.47;;;5.72;;
80539;SDS011;69869;48.036;15.780;2023-05-23T06:26:10;8.38;;;5.57;;
80539;SDS011;69869;48.036;15.780;2023-05-23T06:28:36;6.60;;;5.60;;
80539;SDS011;69869;48.036;15.780;2023-05-23T06:31:03;7.95;;;5.90;;
80539;SDS011;69869;48.036;15.780;2023-05-23T06:33:29;9.82;;;6.07;;
80539;SDS011;69869;48.036;15.780;2023-05-23T06:35:55;8.30;;;5.72;;
80539;SDS011;69869;48.036;15.780;2023-05-23T06:38:21;7.95;;;5.65;;
80539;SDS011;69869;48.036;15.780;2023-05-23T06:40:47;7.18;;;5.78;;
80539;SDS011;69869;48.036;15.780;2023-05-23T06:43:12;8.18;;;5.80;;
80539;SDS011;69869;48.036;15.780;2023-05-23T06:45:38;6.65;;;5.03;;
80539;SDS011;69869;48.036;15.780;2023-05-23T06:48:04;8.20;;;5.93;;
80539;SDS011;69869;48.036;15.780;2023-05-23T06:50:29;9.48;;;5.10;;
80539;SDS011;69869;48.036;15.780;2023-05-23T06:52:55;5.75;;;5.10;;
80539;SDS011;69869;48.036;15.780;2023-05-23T06:55:21;5.85;;;5.10;;
80539;SDS011;69869;48.036;15.780;2023-05-23T06:57:48;6.95;;;5.43;;
80539;SDS011;69869;48.036;15.780;2023-05-23T07:00:16;6.35;;;5.53;;
80539;SDS011;69869;48.036;15.780;2023-05-23T07:02:42;6.60;;;5.68;;
80539;SDS011;69869;48.036;15.780;2023-05-23T07:05:12;8.05;;;5.20;;
80539;SDS011;69869;48.036;15.780;2023-05-23T07:07:39;7.30;;;5.35;;
80539;SDS011;69869;48.036;15.780;2023-05-23T07:10:05;5.97;;;5.10;;
80539;SDS011;69869;48.036;15.780;2023-05-23T07:12:31;6.35;;;5.30;;
80539;SDS011;69869;48.036;15.780;2023-05-23T07:14:57;5.60;;;5.07;;
80539;SDS011;69869;48.036;15.780;2023-05-23T07:17:23;6.15;;;5.25;;
80539;SDS011;69869;48.036;15.780;2023-05-23T07:19:48;5.50;;;4.90;;
80539;SDS011;69869;48.036;15.780;2023-05-23T07:22:17;6.18;;;5.57;;
80539;SDS011;69869;48.036;15.780;2023-05-23T07:24:42;5.53;;;4.70;;
80539;SDS011;69869;48.036;15.780;2023-05-23T07:27:08;5.35;;;4.85;;
80539;SDS011;69869;48.036;15.780;2023-05-23T07:29:33;6.40;;;5.43;;
80539;SDS011;69869;48.036;15.780;2023-05-23T07:31:59;5.45;;;4.95;;
80539;SDS011;69869;48.036;15.780;2023-05-23T07:34:25;5.43;;;4.93;;
80539;SDS011;69869;48.036;15.780;2023-05-23T07:36:51;7.75;;;5.18;;
80539;SDS011;69869;48.036;15.780;2023-05-23T07:39:16;5.40;;;4.78;;
80539;SDS011;69869;48.036;15.780;2023-05-23T07:41:46;5.53;;;5.03;;
80539;SDS011;69869;48.036;15.780;2023-05-23T07:44:12;5.90;;;5.30;;
80539;SDS011;69869;48.036;15.780;2023-05-23T07:46:38;5.53;;;5.03;;
80539;SDS011;69869;48.036;15.780;2023-05-23T07:49:04;5.40;;;4.90;;
80539;SDS011;69869;48.036;15.780;2023-05-23T07:51:30;7.43;;;4.95;;
80539;SDS011;69869;48.036;15.780;2023-05-23T07:53:56;5.28;;;4.85;;
80539;SDS011;69869;48.036;15.780;2023-05-23T07:56:22;6.38;;;5.28;;
80539;SDS011;69869;48.036;15.780;2023-05-23T07:58:47;6.82;;;5.60;;
80539;SDS011;69869;48.036;15.780;2023-05-23T08:01:13;5.63;;;5.10;;
80539;SDS011;69869;48.036;15.780;2023-05-23T08:03:39;5.68;;;5.18;;
80539;SDS011;69869;48.036;15.780;2023-05-23T08:06:04;5.72;;;5.20;;
80539;SDS011;69869;48.036;15.780;2023-05-23T08:08:31;6.78;;;5.57;;
80539;SDS011;69869;48.036;15.780;2023-05-23T08:10:57;6.65;;;5.28;;
80539;SDS011;69869;48.036;15.780;2023-05-23T08:13:23;6.03;;;5.38;;
80539;SDS011;69869;48.036;15.780;2023-05-23T08:15:48;6.90;;;5.68;;
80539;SDS011;69869;48.036;15.780;2023-05-23T08:18:14;7.25;;;5.78;;
80539;SDS011;69869;48.036;15.780;2023-05-23T08:20:40;6.20;;;5.60;;
80539;SDS011;69869;48.036;15.780;2023-05-23T08:23:07;6.35;;;5.60;;
80539;SDS011;69869;48.036;15.780;2023-05-23T08:25:32;6.22;;;5.30;;
80539;SDS011;69869;48.036;15.780;2023-05-23T08:27:58;7.18;;;6.03;;
80539;SDS011;69869;48.036;15.780;2023-05-23T08:30:25;6.40;;;5.80;;
80539;SDS011;69869;48.036;15.780;2023-05-23T08:32:52;6.80;;;6.03;;
80539;SDS011;69869;48.036;15.780;2023-05-23T08:35:19;7.32;;;6.05;;
80539;SDS011;69869;48.036;15.780;2023-05-23T08:37:46;6.20;;;5.60;;
80539;SDS011;69869;48.036;15.780;2023-05-23T08:40:18;6.28;;;5.68;;
80539;SDS011;69869;48.036;15.780;2023-05-23T08:42:48;6.68;;;5.90;;
80539;SDS011;69869;48.036;15.780;2023-05-23T08:45:15;7.05;;;5.82;;
80539;SDS011;69869;48.036;15.780;2023-05-23T08:47:41;6.65;;;5.88;;
80539;SDS011;69869;48.036;15.780;2023-05-23T08:50:12;6.30;;;5.60;;
80539;SDS011;69869;48.036;15.780;2023-05-23T08:52:43;7.03;;;6.13;;
80539;SDS011;69869;48.036;15.780;2023-05-23T08:55:12;6.68;;;5.97;;
80539;SDS011;69869;48.036;15.780;2023-05-23T08:57:38;8.95;;;6.60;;
80539;SDS011;69869;48.036;15.780;2023-05-23T09:00:08;6.90;;;6.20;;
80539;SDS011;69869;48.036;15.780;2023-05-23T09:02:38;7.07;;;6.38;;
80539;SDS011;69869;48.036;15.780;2023-05-23T09:05:08;8.35;;;6.35;;
80539;SDS011;69869;48.036;15.780;2023-05-23T09:07:35;11.43;;;6.30;;
80539;SDS011;69869;48.036;15.780;2023-05-23T09:10:01;7.60;;;6.82;;
80539;SDS011;69869;48.036;15.780;2023-05-23T09:12:29;8.13;;;6.35;;
80539;SDS011;69869;48.036;15.780;2023-05-23T09:14:55;7.78;;;6.85;;
80539;SDS011;69869;48.036;15.780;2023-05-23T09:17:21;7.75;;;6.50;;
80539;SDS011;69869;48.036;15.780;2023-05-23T09:19:47;8.93;;;6.88;;
80539;SDS011;69869;48.036;15.780;2023-05-23T09:22:13;7.35;;;6.07;;
80539;SDS011;69869;48.036;15.780;2023-05-23T09:24:39;8.05;;;6.68;;
80539;SDS011;69869;48.036;15.780;2023-05-23T09:27:06;8.77;;;6.95;;
80539;SDS011;69869;48.036;15.780;2023-05-23T09:29:35;7.82;;;6.95;;
80539;SDS011;69869;48.036;15.780;2023-05-23T09:32:18;8.10;;;6.70;;
80539;SDS011;69869;48.036;15.780;2023-05-23T09:34:57;7.05;;;6.32;;
80539;SDS011;69869;48.036;15.780;2023-05-23T09:37:31;8.15;;;7.00;;
80539;SDS011;69869;48.036;15.780;2023-05-23T09:39:58;7.90;;;7.07;;
80539;SDS011;69869;48.036;15.780;2023-05-23T09:42:25;8.95;;;6.75;;
80539;SDS011;69869;48.036;15.780;2023-05-23T09:44:57;7.53;;;6.68;;
80539;SDS011;69869;48.036;15.780;2023-05-23T09:47:22;9.73;;;7.50;;
80539;SDS011;69869;48.036;15.780;2023-05-23T09:49:48;7.80;;;6.38;;
80539;SDS011;69869;48.036;15.780;2023-05-23T09:52:15;9.02;;;7.10;;
80539;SDS011;69869;48.036;15.780;2023-05-23T09:54:42;8.23;;;7.05;;
80539;SDS011;69869;48.036;15.780;2023-05-23T09:57:09;9.90;;;6.90;;
80539;SDS011;69869;48.036;15.780;2023-05-23T09:59:39;9.93;;;6.95;;
80539;SDS011;69869;48.036;15.780;2023-05-23T10:02:07;7.35;;;6.57;;
80539;SDS011;69869;48.036;15.780;2023-05-23T10:04:35;8.25;;;7.43;;
80539;SDS011;69869;48.036;15.780;2023-05-23T10:07:09;12.55;;;7.55;;
80539;SDS011;69869;48.036;15.780;2023-05-23T10:09:41;8.48;;;7.43;;
80539;SDS011;69869;48.036;15.780;2023-05-23T10:15:00;8.00;;;7.20;;
80539;SDS011;69869;48.036;15.780;2023-05-23T10:18:14;8.90;;;6.80;;
80539;SDS011;69869;48.036;15.780;2023-05-23T10:20:19;11.02;;;7.38;;
80539;SDS011;69869;48.036;15.780;2023-05-23T10:22:49;8.52;;;7.50;;
80539;SDS011;69869;48.036;15.780;2023-05-23T10:25:16;9.02;;;7.82;;
80539;SDS011;69869;48.036;15.780;2023-05-23T10:27:42;10.85;;;7.30;;
80539;SDS011;69869;48.036;15.780;2023-05-23T10:30:08;8.85;;;7.07;;
80539;SDS011;69869;48.036;15.780;2023-05-23T10:32:34;9.68;;;7.38;;
80539;SDS011;69869;48.036;15.780;2023-05-23T10:40:36;9.32;;;6.20;;
80539;SDS011;69869;48.036;15.780;2023-05-23T10:43:39;8.32;;;6.45;;
80539;SDS011;69869;48.036;15.780;2023-05-23T10:46:14;8.40;;;7.35;;
80539;SDS011;69869;48.036;15.780;2023-05-23T10:48:40;7.90;;;7.10;;
80539;SDS011;69869;48.036;15.780;2023-05-23T10:51:10;10.45;;;7.22;;
80539;SDS011;69869;48.036;15.780;2023-05-23T10:53:42;7.70;;;6.68;;
80539;SDS011;69869;48.036;15.780;2023-05-23T10:56:10;7.43;;;6.72;;
80539;SDS011;69869;48.036;15.780;2023-05-23T10:58:46;7.85;;;6.78;;
80539;SDS011;69869;48.036;15.780;2023-05-23T11:01:17;8.43;;;7.30;;
80539;SDS011;69869;48.036;15.780;2023-05-23T11:09:11;6.75;;;6.15;;
80539;SDS011;69869;48.036;15.780;2023-05-23T11:12:01;7.63;;;6.82;;
80539;SDS011;69869;48.036;15.780;2023-05-23T11:16:58;7.95;;;6.88;;
80539;SDS011;69869;48.036;15.780;2023-05-23T11:19:36;7.93;;;6.88;;
80539;SDS011;69869;48.036;15.780;2023-05-23T11:22:02;8.88;;;6.90;;
80539;SDS011;69869;48.036;15.780;2023-05-23T11:27:30;7.70;;;6.90;;
80539;SDS011;69869;48.036;15.780;2023-05-23T11:32:28;8.45;;;7.00;;
80539;SDS011;69869;48.036;15.780;2023-05-23T11:34:57;7.25;;;6.55;;
80539;SDS011;69869;48.036;15.780;2023-05-23T11:37:26;9.70;;;7.18;;
80539;SDS011;69869;48.036;15.780;2023-05-23T11:39:52;8.88;;;6.50;;
80539;SDS011;69869;48.036;15.780;2023-05-23T11:42:18;7.60;;;6.90;;
80539;SDS011;69869;48.036;15.780;2023-05-23T11:44:47;7.93;;;6.57;;
80539;SDS011;69869;48.036;15.780;2023-05-23T11:47:14;7.30;;;6.60;;
80539;SDS011;69869;48.036;15.780;2023-05-23T11:49:40;6.72;;;6.13;;
80539;SDS011;69869;48.036;15.780;2023-05-23T11:52:10;7.30;;;6.18;;
80539;SDS011;69869;48.036;15.780;2023-05-23T11:54:36;6.57;;;5.97;;
80539;SDS011;69869;48.036;15.780;2023-05-23T11:57:01;7.55;;;6.43;;
80539;SDS011;69869;48.036;15.780;2023-05-23T11:59:28;7.20;;;6.50;;
80539;SDS011;69869;48.036;15.780;2023-05-23T12:01:54;7.72;;;6.57;;
80539;SDS011;69869;48.036;15.780;2023-05-23T12:04:20;7.25;;;6.47;;
80539;SDS011;69869;48.036;15.780;2023-05-23T12:06:46;7.20;;;6.50;;
80539;SDS011;69869;48.036;15.780;2023-05-23T12:09:13;7.28;;;6.55;;
80539;SDS011;69869;48.036;15.780;2023-05-23T12:11:39;7.55;;;6.85;;
80539;SDS011;69869;48.036;15.780;2023-05-23T12:14:06;7.45;;;6.68;;
80539;SDS011;69869;48.036;15.780;2023-05-23T12:16:33;7.05;;;6.13;;
80539;SDS011;69869;48.036;15.780;2023-05-23T12:18:59;6.95;;;6.25;;
80539;SDS011;69869;48.036;15.780;2023-05-23T12:21:40;7.45;;;6.40;;
80539;SDS011;69869;48.036;15.780;2023-05-23T12:24:13;10.20;;;6.28;;
80539;SDS011;69869;48.036;15.780;2023-05-23T12:26:52;10.02;;;6.05;;
80539;SDS011;69869;48.036;15.780;2023-05-23T12:29:20;9.15;;;6.13;;
80539;SDS011;69869;48.036;15.780;2023-05-23T12:31:52;7.03;;;6.15;;
80539;SDS011;69869;48.036;15.780;2023-05-23T12:34:18;7.25;;;6.18;;
80539;SDS011;69869;48.036;15.780;2023-05-23T12:36:45;7.53;;;6.72;;
80539;SDS011;69869;48.036;15.780;2023-05-23T12:39:13;7.20;;;6.50;;
80539;SDS011;69869;48.036;15.780;2023-05-23T12:41:43;10.60;;;6.78;;
80539;SDS011;69869;48.036;15.780;2023-05-23T12:44:09;7.43;;;6.32;;
80539;SDS011;69869;48.036;15.780;2023-05-23T12:46:35;9.13;;;6.85;;
80539;SDS011;69869;48.036;15.780;2023-05-23T12:49:01;8.20;;;6.90;;
80539;SDS011;69869;48.036;15.780;2023-05-23T12:51:27;7.50;;;6.70;;
80539;SDS011;69869;48.036;15.780;2023-05-23T12:53:53;8.88;;;7.63;;
80539;SDS011;69869;48.036;15.780;2023-05-23T12:56:19;8.40;;;6.93;;
80539;SDS011;69869;48.036;15.780;2023-05-23T12:58:46;8.75;;;6.93;;
80539;SDS011;69869;48.036;15.780;2023-05-23T13:01:12;7.68;;;6.78;;
80539;SDS011;69869;48.036;15.780;2023-05-23T13:03:38;8.30;;;6.80;;
80539;SDS011;69869;48.036;15.780;2023-05-23T13:06:04;8.65;;;7.38;;
80539;SDS011;69869;48.036;15.780;2023-05-23T13:08:30;9.98;;;7.10;;
80539;SDS011;69869;48.036;15.780;2023-05-23T13:10:56;8.30;;;7.32;;
80539;SDS011;69869;48.036;15.780;2023-05-23T13:13:22;11.25;;;7.68;;
80539;SDS011;69869;48.036;15.780;2023-05-23T13:15:48;8.73;;;7.68;;
80539;SDS011;69869;48.036;15.780;2023-05-23T13:18:14;8.48;;;7.63;;
80539;SDS011;69869;48.036;15.780;2023-05-23T13:20:39;8.23;;;7.43;;
80539;SDS011;69869;48.036;15.780;2023-05-23T13:23:06;9.23;;;7.07;;
80539;SDS011;69869;48.036;15.780;2023-05-23T13:25:33;8.40;;;7.50;;
80539;SDS011;69869;48.036;15.780;2023-05-23T13:27:59;10.50;;;8.10;;
80539;SDS011;69869;48.036;15.780;2023-05-23T13:30:25;9.38;;;7.28;;
80539;SDS011;69869;48.036;15.780;2023-05-23T13:32:52;10.07;;;7.85;;
80539;SDS011;69869;48.036;15.780;2023-05-23T13:35:17;10.30;;;7.63;;
80539;SDS011;69869;48.036;15.780;2023-05-23T13:37:43;11.10;;;8.15;;
80539;SDS011;69869;48.036;15.780;2023-05-23T13:40:14;11.23;;;8.02;;
80539;SDS011;69869;48.036;15.780;2023-05-23T13:42:45;10.55;;;8.27;;
80539;SDS011;69869;48.036;15.780;2023-05-23T13:45:13;9.85;;;7.82;;
80539;SDS011;69869;48.036;15.780;2023-05-23T13:47:39;10.25;;;7.60;;
80539;SDS011;69869;48.036;15.780;2023-05-23T13:50:05;10.18;;;7.53;;
80539;SDS011;69869;48.036;15.780;2023-05-23T13:52:32;8.60;;;7.78;;
80539;SDS011;69869;48.036;15.780;2023-05-23T13:54:58;9.20;;;7.70;;
80539;SDS011;69869;48.036;15.780;2023-05-23T13:57:25;10.95;;;7.80;;
80539;SDS011;69869;48.036;15.780;2023-05-23T13:59:51;9.35;;;8.27;;
80539;SDS011;69869;48.036;15.780;2023-05-23T14:02:16;11.52;;;8.23;;
80539;SDS011;69869;48.036;15.780;2023-05-23T14:04:42;9.35;;;8.40;;
80539;SDS011;69869;48.036;15.780;2023-05-23T14:07:08;9.13;;;7.70;;
80539;SDS011;69869;48.036;15.780;2023-05-23T14:09:33;10.63;;;8.57;;
80539;SDS011;69869;48.036;15.780;2023-05-23T14:11:59;9.93;;;8.60;;
80539;SDS011;69869;48.036;15.780;2023-05-23T14:14:25;11.50;;;8.57;;
80539;SDS011;69869;48.036;15.780;2023-05-23T14:16:51;9.88;;;8.30;;
80539;SDS011;69869;48.036;15.780;2023-05-23T14:19:17;9.57;;;8.30;;
80539;SDS011;69869;48.036;15.780;2023-05-23T14:21:43;9.45;;;7.50;;
80539;SDS011;69869;48.036;15.780;2023-05-23T14:24:09;10.57;;;8.45;;
80539;SDS011;69869;48.036;15.780;2023-05-23T14:26:35;8.93;;;7.55;;
80539;SDS011;69869;48.036;15.780;2023-05-23T14:29:00;8.90;;;7.97;;
80539;SDS011;69869;48.036;15.780;2023-05-23T14:31:26;9.35;;;7.15;;
80539;SDS011;69869;48.036;15.780;2023-05-23T14:33:52;9.90;;;6.72;;
80539;SDS011;69869;48.036;15.780;2023-05-23T14:36:18;10.57;;;7.00;;
80539;SDS011;69869;48.036;15.780;2023-05-23T14:38:43;7.70;;;6.55;;
80539;SDS011;69869;48.036;15.780;2023-05-23T14:41:10;9.30;;;6.97;;
80539;SDS011;69869;48.036;15.780;2023-05-23T14:43:38;11.93;;;6.80;;
80539;SDS011;69869;48.036;15.780;2023-05-23T14:46:04;8.10;;;6.65;;
80539;SDS011;69869;48.036;15.780;2023-05-23T14:48:30;7.15;;;6.45;;
80539;SDS011;69869;48.036;15.780;2023-05-23T14:50:56;8.82;;;6.40;;
80539;SDS011;69869;48.036;15.780;2023-05-23T14:53:25;7.45;;;6.57;;
80539;SDS011;69869;48.036;15.780;2023-05-23T14:55:51;7.97;;;7.07;;
80539;SDS011;69869;48.036;15.780;2023-05-23T14:58:17;8.23;;;6.90;;